Time;durP1;ratioP1;P1;durP2;ratioP2;P2;SDS_P1;SDS_P2;PMS_P1;PMS_P2;Temp;Humidity;BMP_temperature;BMP_pressure;BME280_temperature;BME280_humidity;BME280_pressure;Samples;Min_cycle;Max_cycle;Signal;HPM_P1;HPM_P2
2022/09/01 00:00:51;;;;;;;15.57;14.00;;;16.40;27.40;;;;;;7366893;19;20512;-67
2022/09/01 00:03:24;;;;;;;15.00;13.45;;;16.40;27.80;;;;;;7366798;19;20011;-68
2022/09/01 00:05:55;;;;;;;15.68;13.45;;;16.40;27.70;;;;;;7366959;19;20014;-69
2022/09/01 00:08:26;;;;;;;16.35;14.40;;;16.30;28.40;;;;;;7382455;19;20084;-68
2022/09/01 00:10:55;;;;;;;16.77;13.10;;;16.30;27.80;;;;;;7365361;19;20014;-68
2022/09/01 00:13:26;;;;;;;14.40;12.55;;;16.30;27.60;;;;;;7365278;19;20533;-69
2022/09/01 00:15:58;;;;;;;14.23;12.82;;;16.30;27.70;;;;;;7366247;19;20020;-68
2022/09/01 00:18:28;;;;;;;15.07;13.38;;;16.30;27.70;;;;;;7359886;19;20014;-68
2022/09/01 00:20:58;;;;;;;15.85;13.32;;;16.30;27.10;;;;;;7365210;19;20776;-68
2022/09/01 00:23:29;;;;;;;13.20;11.85;;;16.20;26.90;;;;;;7385478;19;20014;-68
2022/09/01 00:25:59;;;;;;;14.20;12.65;;;16.30;27.00;;;;;;7365328;19;20135;-68
2022/09/01 00:28:29;;;;;;;13.63;12.32;;;16.20;27.40;;;;;;7356714;19;20007;-68
2022/09/01 00:31:03;;;;;;;18.95;13.23;;;16.20;27.60;;;;;;7365751;19;20007;-68
2022/09/01 00:33:33;;;;;;;17.50;14.15;;;16.20;27.60;;;;;;7365467;19;20487;-68
2022/09/01 00:36:04;;;;;;;15.52;13.88;;;16.10;27.50;;;;;;7365397;19;20021;-67
2022/09/01 00:38:34;;;;;;;14.95;13.45;;;16.10;27.90;;;;;;7379026;19;20010;-68
2022/09/01 00:41:05;;;;;;;13.52;12.23;;;16.10;27.70;;;;;;7364910;19;20016;-68
2022/09/01 00:43:43;;;;;;;15.02;13.25;;;16.00;28.00;;;;;;7363883;19;20010;-68
2022/09/01 00:46:20;;;;;;;14.73;12.70;;;16.00;28.30;;;;;;7365108;19;20026;-68
2022/09/01 00:48:58;;;;;;;16.55;14.40;;;16.00;28.50;;;;;;7357906;19;20030;-68
2022/09/01 00:51:29;;;;;;;15.02;13.43;;;15.90;28.20;;;;;;7371542;19;20029;-67
2022/09/01 00:54:02;;;;;;;14.63;13.13;;;15.90;28.70;;;;;;7372724;19;20086;-68
2022/09/01 00:56:35;;;;;;;15.32;13.05;;;15.90;28.40;;;;;;7392972;19;20030;-68
2022/09/01 00:59:07;;;;;;;15.60;13.57;;;15.80;28.70;;;;;;7363211;19;20021;-67
2022/09/01 01:01:40;;;;;;;15.95;13.27;;;15.80;29.30;;;;;;7372067;19;20078;-68
2022/09/01 01:04:13;;;;;;;15.25;13.75;;;15.80;28.80;;;;;;7371948;19;20015;-68
2022/09/01 01:06:48;;;;;;;15.32;13.75;;;15.80;28.80;;;;;;7371693;19;20006;-67
2022/09/01 01:09:20;;;;;;;16.27;14.50;;;15.80;28.70;;;;;;7364365;19;20007;-68
2022/09/01 01:11:51;;;;;;;14.73;13.18;;;15.80;28.60;;;;;;7372149;19;20027;-68
2022/09/01 01:14:20;;;;;;;17.95;12.88;;;15.80;29.10;;;;;;7393700;19;20074;-68
2022/09/01 01:16:54;;;;;;;17.33;13.23;;;15.80;28.60;;;;;;7368086;19;20011;-67
2022/09/01 01:25:18;;;;;;;15.05;12.70;;;15.80;28.40;;;;;;7367190;19;20006;-68
2022/09/01 01:27:48;;;;;;;16.73;13.40;;;15.70;28.60;;;;;;7361400;19;20020;-68
2022/09/01 01:30:19;;;;;;;15.60;13.23;;;15.70;28.40;;;;;;7371918;19;20017;-67
2022/09/01 01:32:50;;;;;;;14.88;13.18;;;15.70;28.50;;;;;;7371933;19;20010;-68
2022/09/01 01:35:23;;;;;;;14.00;12.60;;;15.60;28.20;;;;;;7393302;19;20010;-68
2022/09/01 01:37:53;;;;;;;13.65;12.32;;;15.60;28.20;;;;;;7362643;19;20411;-68
2022/09/01 01:40:27;;;;;;;15.85;12.70;;;15.60;28.20;;;;;;7370468;19;20692;-68
2022/09/01 01:43:00;;;;;;;14.27;12.77;;;15.60;28.20;;;;;;7370545;19;20010;-68
2022/09/01 01:45:30;;;;;;;14.55;13.05;;;15.50;28.50;;;;;;7369307;19;20034;-69
2022/09/01 01:48:07;;;;;;;15.48;13.27;;;15.50;28.30;;;;;;7362620;19;20026;-68
2022/09/01 01:50:38;;;;;;;16.25;13.15;;;15.50;28.80;;;;;;7391505;19;20015;-68
2022/09/01 01:53:10;;;;;;;15.00;13.18;;;15.40;29.20;;;;;;7371138;19;20025;-68
2022/09/01 01:55:44;;;;;;;15.10;13.30;;;15.40;29.20;;;;;;7370723;19;20006;-69
2022/09/01 01:58:14;;;;;;;16.50;12.93;;;15.40;29.20;;;;;;7360359;19;20010;-68
2022/09/01 02:00:46;;;;;;;14.55;13.07;;;15.40;29.20;;;;;;7367828;19;20025;-68
2022/09/01 02:03:18;;;;;;;14.25;12.60;;;15.40;29.20;;;;;;7370780;19;20105;-68
2022/09/01 02:05:49;;;;;;;16.05;13.77;;;15.40;29.20;;;;;;7368148;19;20081;-68
2022/09/01 02:08:21;;;;;;;14.52;12.85;;;15.40;29.20;;;;;;7382998;19;20738;-68
2022/09/01 02:10:56;;;;;;;14.25;12.75;;;15.30;29.10;;;;;;7369031;19;20421;-68
2022/09/01 02:13:29;;;;;;;14.35;12.85;;;15.30;29.60;;;;;;7368872;19;20010;-68
2022/09/01 02:16:02;;;;;;;16.63;13.90;;;15.30;29.40;;;;;;7367356;19;20011;-69
2022/09/01 02:18:35;;;;;;;15.27;13.65;;;15.20;30.00;;;;;;7361270;19;20014;-67
2022/09/01 02:21:10;;;;;;;14.65;13.10;;;15.20;30.20;;;;;;7369587;19;20014;-68
2022/09/01 02:23:45;;;;;;;15.63;13.95;;;15.20;30.80;;;;;;7369795;19;20764;-68
2022/09/01 02:26:17;;;;;;;17.02;14.65;;;15.20;30.50;;;;;;7390377;19;20018;-67
2022/09/01 02:28:49;;;;;;;16.98;14.57;;;15.20;30.50;;;;;;7360377;19;20024;-67
2022/09/01 02:31:26;;;;;;;16.08;14.35;;;15.10;31.10;;;;;;7368865;19;20106;-67
2022/09/01 02:33:57;;;;;;;17.45;15.02;;;15.10;31.40;;;;;;7368922;19;20340;-68
2022/09/01 02:36:27;;;;;;;20.45;15.20;;;15.10;31.70;;;;;;7369517;19;20086;-67
2022/09/01 02:38:57;;;;;;;18.38;14.98;;;15.00;31.50;;;;;;7361249;19;20069;-68
2022/09/01 02:41:33;;;;;;;16.70;14.40;;;15.10;31.80;;;;;;7390195;19;20470;-68
2022/09/01 02:44:10;;;;;;;17.27;15.35;;;15.10;31.60;;;;;;7368826;19;20482;-68
2022/09/01 02:46:42;;;;;;;17.77;14.63;;;15.00;31.20;;;;;;7367196;19;20018;-67
2022/09/01 02:49:18;;;;;;;16.38;14.57;;;15.00;32.60;;;;;;7360628;19;20453;-67
2022/09/01 02:51:52;;;;;;;20.40;15.73;;;15.00;32.00;;;;;;7369459;19;20041;-68
2022/09/01 02:54:24;;;;;;;;;;;15.00;31.80;;;;;;7369719;19;20039;-68
2022/09/01 02:56:57;;;;;;;16.63;14.65;;;15.00;32.20;;;;;;7365608;19;20000;-68
2022/09/01 02:59:29;;;;;;;16.50;14.77;;;14.90;32.60;;;;;;7383793;19;20066;-68
2022/09/01 03:01:59;;;;;;;17.92;15.48;;;14.90;32.70;;;;;;7369010;19;20015;-68
2022/09/01 03:04:34;;;;;;;17.98;14.80;;;14.90;32.80;;;;;;7367268;19;20010;-68
2022/09/01 03:07:04;;;;;;;15.55;13.95;;;14.80;32.70;;;;;;7363678;19;20047;-68
2022/09/01 03:09:34;;;;;;;16.90;15.10;;;14.80;33.40;;;;;;7363854;19;20010;-68
2022/09/01 03:12:09;;;;;;;17.15;15.05;;;14.70;33.90;;;;;;7364278;19;20049;-68
2022/09/01 03:14:39;;;;;;;18.02;15.23;;;14.80;33.90;;;;;;7387445;19;20015;-68
2022/09/01 03:17:09;;;;;;;19.52;14.82;;;14.80;33.70;;;;;;7361040;19;20014;-67
2022/09/01 03:19:43;;;;;;;18.40;16.10;;;14.80;33.60;;;;;;7362883;19;20020;-67
2022/09/01 03:22:13;;;;;;;17.80;15.82;;;14.70;34.10;;;;;;7367928;19;20007;-67
2022/09/01 03:24:43;;;;;;;19.10;15.88;;;14.70;34.10;;;;;;7367489;19;20081;-67
2022/09/01 03:27:15;;;;;;;17.38;15.57;;;14.70;34.10;;;;;;7361347;19;20082;-69
2022/09/01 03:29:45;;;;;;;19.63;15.60;;;14.70;34.50;;;;;;7362515;19;20006;-69
2022/09/01 03:32:15;;;;;;;17.55;15.70;;;14.80;34.50;;;;;;7389995;19;20010;-68
2022/09/01 03:34:45;;;;;;;18.73;16.08;;;14.80;34.20;;;;;;7367117;19;20027;-68
2022/09/01 03:37:15;;;;;;;17.95;16.05;;;14.70;33.90;;;;;;7361797;19;20082;-68
2022/09/01 03:39:45;;;;;;;17.58;15.73;;;14.70;34.80;;;;;;7363126;19;20146;-68
2022/09/01 03:42:24;;;;;;;18.52;15.75;;;14.70;34.30;;;;;;7367359;19;20036;-68
2022/09/01 03:44:55;;;;;;;19.42;15.77;;;14.70;34.20;;;;;;7366923;19;20562;-68
2022/09/01 03:47:26;;;;;;;19.20;16.30;;;14.70;34.40;;;;;;7381987;19;20006;-67
2022/09/01 03:49:56;;;;;;;21.50;15.77;;;14.70;34.10;;;;;;7361736;19;20011;-68
2022/09/01 03:52:28;;;;;;;17.85;15.82;;;14.70;34.30;;;;;;7365536;19;20017;-68
2022/09/01 03:55:00;;;;;;;17.60;15.70;;;14.70;34.70;;;;;;7367474;19;20043;-69
2022/09/01 03:57:32;;;;;;;18.25;16.02;;;14.70;34.80;;;;;;7361507;19;20010;-68
2022/09/01 04:00:03;;;;;;;18.95;16.15;;;14.70;34.90;;;;;;7363368;19;21002;-68
2022/09/01 04:02:33;;;;;;;20.98;17.20;;;14.70;34.50;;;;;;7388636;19;20476;-69
2022/09/01 04:05:03;;;;;;;19.23;17.23;;;14.70;35.00;;;;;;7366121;19;20014;-69
2022/09/01 04:07:37;;;;;;;19.15;16.67;;;14.70;34.50;;;;;;7359336;19;20006;-67
2022/09/01 04:10:10;;;;;;;21.55;17.60;;;14.70;34.60;;;;;;7362827;19;20545;-67
2022/09/01 04:12:42;;;;;;;21.15;17.20;;;14.70;34.90;;;;;;7366760;19;20027;-67
2022/09/01 04:15:15;;;;;;;21.80;17.42;;;14.70;34.80;;;;;;7367187;19;20050;-68
2022/09/01 04:20:28;;;;;;;21.75;18.35;;;14.70;35.00;;;;;;7386707;19;20043;-68
2022/09/01 04:22:58;;;;;;;24.02;18.55;;;14.70;34.70;;;;;;7365980;19;20695;-68
2022/09/01 04:25:28;;;;;;;20.02;17.92;;;14.60;35.10;;;;;;7362788;19;20006;-67
2022/09/01 04:28:02;;;;;;;22.02;17.90;;;14.60;35.50;;;;;;7356306;19;20474;-67
2022/09/01 04:30:33;;;;;;;22.67;18.45;;;14.50;35.60;;;;;;7365517;19;20010;-67
2022/09/01 04:33:02;;;;;;;21.27;19.05;;;14.50;35.90;;;;;;7365646;19;20010;-68
2022/09/01 04:35:32;;;;;;;21.17;18.65;;;14.40;36.40;;;;;;7387624;19;20022;-68
2022/09/01 04:38:07;;;;;;;21.05;18.77;;;14.40;36.60;;;;;;7356790;19;20003;-68
2022/09/01 04:40:39;;;;;;;23.25;19.65;;;14.30;37.00;;;;;;7363916;19;20014;-68
2022/09/01 04:43:12;;;;;;;24.30;19.73;;;14.30;37.20;;;;;;7366135;19;20014;-68
2022/09/01 04:45:43;;;;;;;24.05;18.48;;;14.40;37.20;;;;;;7364820;19;20014;-67
2022/09/01 04:48:13;;;;;;;22.25;18.58;;;14.40;36.80;;;;;;7356537;19;20524;-68
2022/09/01 04:50:43;;;;;;;23.25;18.83;;;14.40;36.70;;;;;;7364318;19;20573;-67
2022/09/01 04:53:14;;;;;;;25.90;20.63;;;14.40;36.60;;;;;;7386955;19;20024;-69
2022/09/01 04:55:45;;;;;;;25.13;19.55;;;14.50;36.70;;;;;;7363481;19;20011;-68
2022/09/01 04:58:21;;;;;;;23.10;18.92;;;14.50;36.70;;;;;;7356493;19;20834;-68
2022/09/01 05:00:54;;;;;;;22.77;20.33;;;14.70;35.10;;;;;;7363620;19;20010;-68
2022/09/01 05:03:25;;;;;;;25.10;20.42;;;14.90;32.80;;;;;;7363491;19;20478;-68
2022/09/01 05:05:57;;;;;;;22.42;19.40;;;15.20;29.40;;;;;;7363815;19;20046;-68
2022/09/01 05:08:27;;;;;;;24.13;19.63;;;15.40;27.70;;;;;;7377150;19;20010;-67
2022/09/01 05:11:02;;;;;;;;;;;15.60;24.60;;;;;;7364161;19;20016;-69
2022/09/01 05:13:37;;;;;;;22.98;19.63;;;16.00;19.80;;;;;;7364059;19;20013;-69
2022/09/01 05:16:11;;;;;;;24.88;20.85;;;16.20;19.00;;;;;;7364012;19;20011;-67
2022/09/01 05:18:43;;;;;;;20.95;18.30;;;16.30;18.00;;;;;;7356031;19;20081;-68
2022/09/01 05:21:15;;;;;;;21.42;17.40;;;16.70;15.40;;;;;;7363260;19;20014;-67
2022/09/01 05:23:46;;;;;;;21.95;19.25;;;16.90;12.50;;;;;;7363917;19;20074;-70
2022/09/01 05:26:19;;;;;;;20.65;17.65;;;16.90;10.70;;;;;;7384457;19;20031;-68
2022/09/01 05:28:54;;;;;;;21.88;19.15;;;16.80;11.20;;;;;;7355479;19;20054;-67
2022/09/01 05:31:26;;;;;;;23.17;19.83;;;16.70;12.40;;;;;;7362736;19;20174;-69
2022/09/01 05:33:57;;;;;;;25.13;19.52;;;16.60;14.20;;;;;;7363773;19;20074;-67
2022/09/01 05:36:32;;;;;;;23.60;19.63;;;15.80;18.20;;;;;;7368805;19;20470;-68
2022/09/01 05:39:03;;;;;;;23.00;19.35;;;15.50;23.50;;;;;;7362746;19;20019;-68
2022/09/01 05:41:34;;;;;;;25.20;20.58;;;15.30;25.70;;;;;;7392516;19;20010;-68
2022/09/01 05:44:08;;;;;;;22.88;19.85;;;15.30;26.80;;;;;;7370477;19;20012;-67
2022/09/01 05:46:41;;;;;;;24.83;20.70;;;15.30;26.20;;;;;;7368635;19;20038;-68
2022/09/01 05:49:14;;;;;;;25.95;21.05;;;15.20;27.50;;;;;;7362608;19;20360;-67
2022/09/01 05:51:50;;;;;;;28.63;22.15;;;15.30;28.90;;;;;;7368863;19;20018;-68
2022/09/01 05:54:24;;;;;;;27.63;21.95;;;15.30;28.20;;;;;;7370809;19;20006;-68
2022/09/01 05:56:56;;;;;;;26.27;20.60;;;15.30;28.40;;;;;;7366836;19;20014;-68
2022/09/01 05:59:45;;;;;;;25.33;20.77;;;15.50;26.50;;;;;;7367334;19;20466;-68
2022/09/01 06:02:16;;;;;;;26.23;20.42;;;15.50;25.80;;;;;;7389657;19;20014;-68
2022/09/01 06:04:46;;;;;;;27.65;21.02;;;15.50;26.30;;;;;;7369228;19;20018;-67
2022/09/01 06:07:18;;;;;;;26.17;19.92;;;15.60;27.60;;;;;;7362839;19;20002;-68
2022/09/01 06:09:54;;;;;;;26.55;20.50;;;15.70;26.00;;;;;;7366188;19;20007;-68
2022/09/01 06:12:25;;;;;;;26.63;20.90;;;15.90;26.10;;;;;;7367678;19;20100;-68
2022/09/01 06:14:58;;;;;;;26.45;21.17;;;15.80;25.80;;;;;;7368704;19;20151;-68
2022/09/01 06:17:30;;;;;;;27.83;20.83;;;15.60;25.70;;;;;;7382612;19;20018;-69
2022/09/01 06:20:09;;;;;;;26.65;20.58;;;15.80;26.20;;;;;;7367973;19;20020;-68
2022/09/01 06:22:41;;;;;;;26.02;20.42;;;15.90;26.10;;;;;;7368655;19;20017;-68
2022/09/01 06:25:11;;;;;;;27.95;21.40;;;15.90;26.10;;;;;;7369343;19;20011;-68
2022/09/01 06:27:43;;;;;;;25.95;20.10;;;16.10;24.20;;;;;;7360887;19;20078;-67
2022/09/01 06:30:19;;;;;;;26.58;20.35;;;16.30;24.40;;;;;;7366809;19;20471;-68
2022/09/01 06:32:53;;;;;;;25.23;19.20;;;16.50;23.20;;;;;;7368579;19;20026;-68
2022/09/01 06:35:28;;;;;;;26.73;19.27;;;16.60;22.60;;;;;;7391140;19;20014;-67
2022/09/01 06:37:58;;;;;;;26.45;20.05;;;16.30;22.20;;;;;;7359916;19;20009;-68
2022/09/01 06:40:29;;;;;;;26.83;18.90;;;16.50;21.60;;;;;;7367402;19;20010;-69
2022/09/01 06:43:01;;;;;;;29.05;20.52;;;16.70;21.20;;;;;;7368658;19;20469;-69
2022/09/01 06:45:33;;;;;;;29.02;19.98;;;16.90;19.70;;;;;;7367582;19;20016;-68
2022/09/01 06:48:03;;;;;;;25.20;19.52;;;16.90;19.80;;;;;;7357052;19;20056;-69
2022/09/01 06:50:33;;;;;;;24.27;18.50;;;17.00;18.30;;;;;;7388441;19;20028;-68
2022/09/01 06:53:23;;;;;;;31.65;19.25;;;17.10;18.50;;;;;;7367973;19;20015;-68
2022/09/01 06:56:03;;;;;;;23.55;18.38;;;17.40;16.70;;;;;;7365607;19;20042;-68
2022/09/01 06:58:34;;;;;;;21.10;17.13;;;17.40;15.30;;;;;;7358457;19;20050;-68
2022/09/01 07:01:14;;;;;;;26.40;17.73;;;17.40;15.20;;;;;;7367442;19;20010;-68
2022/09/01 07:03:46;;;;;;;22.90;17.10;;;17.60;13.40;;;;;;7366487;19;20070;-68
2022/09/01 07:06:17;;;;;;;20.50;16.08;;;17.80;13.20;;;;;;7367146;19;20033;-69
2022/09/01 07:09:06;;;;;;;19.05;15.23;;;17.90;11.00;;;;;;7360095;19;21079;-68
2022/09/01 07:11:57;;;;;;;20.80;14.68;;;17.80;9.90;;;;;;7365087;19;20011;-68
2022/09/01 07:14:48;;;;;;;14.45;12.52;;;18.00;8.10;;;;;;7365705;19;20014;-68
2022/09/01 07:17:41;;;;;;;23.40;13.25;;;17.90;7.10;;;;;;7380425;19;20025;-69
2022/09/01 07:20:14;;;;;;;15.27;11.75;;;18.00;6.50;;;;;;7365535;19;20016;-69
2022/09/01 07:22:52;;;;;;;14.68;11.52;;;17.90;6.80;;;;;;7365635;19;20018;-68
2022/09/01 07:25:42;;;;;;;16.02;12.43;;;17.80;7.00;;;;;;7365701;19;20389;-68
2022/09/01 07:28:31;;;;;;;13.07;11.55;;;17.80;6.30;;;;;;7356073;19;20006;-68
2022/09/01 07:31:07;;;;;;;15.98;12.77;;;17.90;6.00;;;;;;7364846;19;20123;-68
2022/09/01 07:34:03;;;;;;;14.00;10.75;;;17.90;5.70;;;;;;7366348;19;20118;-68
2022/09/01 07:36:55;;;;;;;17.98;10.48;;;18.10;4.30;;;;;;7362642;19;20410;-67
2022/09/01 07:39:46;;;;;;;15.07;10.18;;;18.30;3.30;;;;;;7363472;19;20377;-68
2022/09/01 07:42:37;;;;;;;11.40;9.68;;;18.30;2.80;;;;;;7366529;19;20386;-69
2022/09/01 07:45:27;;;;;;;13.13;10.65;;;18.60;1.70;;;;;;7364162;19;20014;-68
2022/09/01 07:48:01;;;;;;;10.45;8.90;;;18.70;1.00;;;;;;7355107;19;20018;-69
2022/09/01 07:50:35;;;;;;;10.35;8.55;;;18.70;1.00;;;;;;7385326;19;20014;-66
2022/09/01 07:53:29;;;;;;;10.80;9.07;;;18.90;1.00;;;;;;7361782;19;20030;-68
2022/09/01 07:56:02;;;;;;;11.00;8.93;;;18.90;1.00;;;;;;7364095;19;20002;-68
2022/09/01 07:58:32;;;;;;;17.00;10.73;;;18.90;1.00;;;;;;7354873;19;20021;-68
2022/09/01 08:01:02;;;;;;;11.05;9.40;;;19.00;1.00;;;;;;7364222;19;20009;-68
2022/09/01 08:03:32;;;;;;;9.98;8.52;;;19.20;1.00;;;;;;7364550;19;20010;-67
2022/09/01 08:06:09;;;;;;;10.70;9.32;;;19.30;1.00;;;;;;7364732;19;20014;-67
2022/09/01 08:08:41;;;;;;;10.60;9.00;;;19.40;1.00;;;;;;7376021;19;20434;-68
2022/09/01 08:11:10;;;;;;;11.43;8.55;;;19.40;1.00;;;;;;7363641;19;20017;-68
2022/09/01 08:13:40;;;;;;;10.48;9.05;;;19.30;1.00;;;;;;7363286;19;20027;-68
2022/09/01 08:16:13;;;;;;;12.45;8.68;;;19.20;1.00;;;;;;7362018;19;20034;-69
2022/09/01 08:18:48;;;;;;;9.65;8.13;;;19.20;1.00;;;;;;7356291;19;20014;-70
2022/09/01 08:21:24;;;;;;;10.55;8.25;;;19.70;1.00;;;;;;7363663;19;20007;-68
2022/09/01 08:23:56;;;;;;;9.75;8.75;;;19.80;1.00;;;;;;7367068;19;20078;-68
2022/09/01 08:26:28;;;;;;;9.95;8.10;;;19.60;1.00;;;;;;7386899;19;20014;-68
2022/09/01 08:28:58;;;;;;;10.73;8.50;;;19.50;1.00;;;;;;7354052;19;20017;-68
2022/09/01 08:31:28;;;;;;;11.95;9.02;;;19.30;1.00;;;;;;7363655;19;20023;-68
2022/09/01 08:34:00;;;;;;;10.15;8.07;;;19.50;1.00;;;;;;7364773;19;20308;-68
2022/09/01 08:36:33;;;;;;;9.90;8.60;;;19.90;1.00;;;;;;7364182;19;20020;-68
2022/09/01 08:39:04;;;;;;;10.00;8.68;;;19.60;1.00;;;;;;7355692;19;20024;-69
2022/09/01 08:41:44;;;;;;;10.30;9.15;;;19.90;1.00;;;;;;7385351;19;20039;-68
2022/09/01 08:44:30;;;;;;;11.80;8.88;;;19.70;1.00;;;;;;7365290;19;20032;-69
2022/09/01 08:47:07;;;;;;;10.80;8.25;;;19.70;1.00;;;;;;7360088;19;20026;-67
2022/09/01 08:49:45;;;;;;;10.00;8.87;;;19.70;1.00;;;;;;7358999;19;20429;-68
2022/09/01 08:52:28;;;;;;;9.35;7.88;;;19.70;1.00;;;;;;7363775;19;20130;-67
2022/09/01 08:55:02;;;;;;;8.80;7.50;;;19.70;1.00;;;;;;7363795;19;20082;-69
2022/09/01 08:57:35;;;;;;;8.63;7.10;;;19.50;1.00;;;;;;7358297;19;20006;-68
2022/09/01 09:00:07;;;;;;;8.93;7.38;;;19.60;1.00;;;;;;7360117;19;20031;-67
2022/09/01 09:02:53;;;;;;;8.85;7.95;;;19.50;1.00;;;;;;7384839;19;20027;-68
2022/09/01 09:05:33;;;;;;;9.38;7.95;;;19.50;1.00;;;;;;7364158;19;20008;-68
2022/09/01 09:08:26;;;;;;;8.75;7.68;;;19.80;1.00;;;;;;7355039;19;20027;-69
2022/09/01 09:11:06;;;;;;;9.63;7.65;;;19.80;1.00;;;;;;7365498;19;20080;-69
2022/09/01 09:13:48;;;;;;;8.07;7.07;;;19.90;1.00;;;;;;7370704;19;20029;-69
2022/09/01 09:16:22;;;;;;;18.73;14.55;;;19.90;1.00;;;;;;7369012;19;20046;-69
2022/09/01 09:18:54;;;;;;;;;;;19.80;1.00;;;;;;7361881;19;20015;-68
2022/09/01 09:21:30;;;;;;;7.43;6.25;;;19.90;1.00;;;;;;7368808;19;19914;-69
2022/09/01 09:24:11;;;;;;;8.07;6.35;;;20.00;1.00;;;;;;7369119;19;20010;-69
2022/09/01 09:26:51;;;;;;;9.45;6.65;;;19.80;1.00;;;;;;7367867;19;20034;-67
2022/09/01 09:29:22;;;;;;;7.40;6.60;;;19.90;1.00;;;;;;7381739;19;20440;-68
2022/09/01 09:32:05;;;;;;;8.82;6.47;;;20.30;1.00;;;;;;7368760;19;20098;-67
2022/09/01 09:34:37;;;;;;;6.88;6.03;;;20.20;1.00;;;;;;7369226;19;20002;-68
2022/09/01 09:37:34;;;;;;;8.02;6.47;;;20.50;1.00;;;;;;7365608;19;20090;-69
2022/09/01 09:40:13;;;;;;;6.82;6.13;;;20.40;1.00;;;;;;7365494;19;20006;-69
2022/09/01 09:43:01;;;;;;;7.97;5.85;;;20.70;1.00;;;;;;7369819;19;20011;-69
2022/09/01 09:45:34;;;;;;;6.97;5.60;;;20.40;1.00;;;;;;7368246;19;20474;-68
2022/09/01 09:48:08;;;;;;;11.23;8.20;;;20.60;1.00;;;;;;7362504;19;20086;-69
2022/09/01 09:50:42;;;;;;;6.22;5.55;;;20.70;1.00;;;;;;7389182;19;20440;-69
2022/09/01 09:53:18;;;;;;;6.20;5.70;;;20.60;1.00;;;;;;7368669;19;20413;-68
2022/09/01 09:56:01;;;;;;;5.45;4.93;;;20.70;1.00;;;;;;7369041;19;20078;-69
2022/09/01 09:58:39;;;;;;;6.00;5.32;;;20.80;1.00;;;;;;7360872;19;20011;-69
2022/09/01 10:01:15;;;;;;;5.57;4.97;;;20.90;1.00;;;;;;7369780;19;20014;-68
2022/09/01 10:03:49;;;;;;;6.10;4.93;;;20.90;1.00;;;;;;7370962;19;20343;-69
2022/09/01 10:06:33;;;;;;;5.45;4.80;;;20.90;1.00;;;;;;7369483;19;20029;-68
2022/09/01 10:09:05;;;;;;;5.63;4.97;;;21.00;1.00;;;;;;7360542;19;20043;-68
2022/09/01 10:11:42;;;;;;;5.13;4.53;;;21.30;1.00;;;;;;7390474;19;20014;-68
2022/09/01 10:14:19;;;;;;;5.18;4.68;;;21.30;1.00;;;;;;7369844;19;20035;-68
2022/09/01 10:17:14;;;;;;;4.53;4.13;;;21.50;1.00;;;;;;7362586;19;20018;-69
2022/09/01 10:19:53;;;;;;;7.90;4.60;;;21.70;1.00;;;;;;7365809;19;20007;-68
2022/09/01 10:22:24;;;;;;;4.10;3.80;;;22.00;1.00;;;;;;7364442;19;20082;-68
2022/09/01 10:24:54;;;;;;;4.13;3.55;;;21.70;1.00;;;;;;7367700;19;20075;-68
2022/09/01 10:27:31;;;;;;;5.25;4.47;;;21.80;1.00;;;;;;7360569;19;20456;-69
2022/09/01 10:30:09;;;;;;;6.20;4.40;;;21.40;1.00;;;;;;7362657;19;20034;-68
2022/09/01 10:32:49;;;;;;;5.45;3.53;;;21.60;1.00;;;;;;7367107;19;20026;-69
2022/09/01 10:35:28;;;;;;;4.53;4.13;;;21.60;1.00;;;;;;7390144;19;20030;-70
2022/09/01 10:38:00;;;;;;;5.97;5.13;;;21.50;1.00;;;;;;7359803;19;20011;-69
2022/09/01 10:40:44;;;;;;;7.22;4.78;;;22.00;1.00;;;;;;7365714;19;20014;-68
2022/09/01 10:43:34;;;;;;;5.15;3.60;;;22.20;1.00;;;;;;7366819;19;20022;-69
2022/09/01 10:46:12;;;;;;;4.30;3.47;;;22.20;1.00;;;;;;7369402;19;20078;-69
2022/09/01 10:48:45;;;;;;;5.25;3.58;;;22.10;1.00;;;;;;7359183;19;20032;-69
2022/09/01 10:51:47;;;;;;;4.47;4.00;;;22.10;1.00;;;;;;7366308;19;20015;-69
2022/09/01 10:54:55;;;;;;;7.20;3.90;;;22.10;1.00;;;;;;7368428;19;20006;-68
2022/09/01 10:57:39;;;;;;;6.25;3.80;;;21.90;1.00;;;;;;7360812;19;22186;-69
2022/09/01 11:00:50;;;;;;;4.10;3.70;;;21.90;1.00;;;;;;7366611;19;20075;-70
2022/09/01 11:04:00;;;;;;;5.28;4.65;;;21.50;1.00;;;;;;7368272;19;20028;-69
2022/09/01 11:07:04;;;;;;;5.22;4.47;;;21.60;1.00;;;;;;7366865;19;20014;-68
2022/09/01 11:09:43;;;;;;;4.70;4.30;;;21.70;1.00;;;;;;7364108;19;20489;-69
2022/09/01 11:12:37;;;;;;;5.28;3.60;;;22.50;1.00;;;;;;7366139;19;20006;-69
2022/09/01 11:15:37;;;;;;;4.75;4.25;;;23.00;1.00;;;;;;7367785;19;20489;-69
2022/09/01 11:18:16;;;;;;;5.63;4.22;;;22.60;1.00;;;;;;7360491;19;20017;-70
2022/09/01 11:20:49;;;;;;;4.38;3.95;;;22.70;1.00;;;;;;7365182;19;20022;-70
2022/09/01 11:23:25;;;;;;;3.85;3.55;;;22.60;1.00;;;;;;7389003;19;20085;-70
2022/09/01 11:25:57;;;;;;;6.05;3.60;;;22.20;1.00;;;;;;7365914;19;20359;-69
2022/09/01 11:28:48;;;;;;;6.50;4.05;;;22.10;1.00;;;;;;7357107;19;20359;-69
2022/09/01 11:31:25;;;;;;;4.90;4.25;;;21.80;1.00;;;;;;7367154;19;20491;-68
2022/09/01 11:34:11;;;;;;;4.07;3.67;;;21.80;1.00;;;;;;7366697;19;20018;-69
2022/09/01 11:36:52;;;;;;;4.97;3.72;;;21.80;1.00;;;;;;7365516;19;20041;-68
2022/09/01 11:39:36;;;;;;;4.47;4.05;;;21.50;1.00;;;;;;7359448;19;20042;-68
2022/09/01 11:42:13;;;;;;;4.30;3.90;;;21.80;1.00;;;;;;7366278;19;20014;-69
2022/09/01 11:44:50;;;;;;;4.22;3.70;;;22.60;1.00;;;;;;7365345;19;20073;-69
2022/09/01 11:47:25;;;;;;;4.65;3.97;;;23.10;1.00;;;;;;7381974;19;20024;-70
2022/09/01 11:50:01;;;;;;;3.97;3.55;;;23.10;1.00;;;;;;7361743;19;20086;-68
2022/09/01 11:52:34;;;;;;;7.03;4.18;;;23.60;1.00;;;;;;7365583;19;20019;-68
2022/09/01 11:55:06;;;;;;;3.80;3.47;;;23.30;1.00;;;;;;7365440;19;20107;-70
2022/09/01 11:57:38;;;;;;;4.40;3.92;;;23.50;1.00;;;;;;7359479;19;20746;-69
2022/09/01 12:00:13;;;;;;;4.22;3.83;;;23.00;1.00;;;;;;7364476;19;20081;-67
2022/09/01 12:02:48;;;;;;;19.63;4.45;;;23.50;1.00;;;;;;7365915;19;20074;-70
2022/09/01 12:05:36;;;;;;;5.15;3.65;;;23.70;1.00;;;;;;7387761;19;20010;-69
2022/09/01 12:08:13;;;;;;;3.83;3.53;;;23.80;1.00;;;;;;7358681;19;20037;-69
2022/09/01 12:10:44;;;;;;;7.20;3.92;;;23.60;1.00;;;;;;7362200;19;20489;-68
2022/09/01 12:13:20;;;;;;;4.05;3.28;;;23.50;1.00;;;;;;7364650;19;20139;-70
2022/09/01 12:15:56;;;;;;;3.95;3.22;;;23.80;1.00;;;;;;7365791;19;20006;-69
2022/09/01 12:18:49;;;;;;;4.70;3.47;;;23.30;1.00;;;;;;7355651;19;20006;-68
2022/09/01 12:21:24;;;;;;;4.07;3.13;;;23.40;1.00;;;;;;7365439;19;21343;-70
2022/09/01 12:23:55;;;;;;;6.97;6.28;;;23.50;1.00;;;;;;7364412;19;20038;-70
2022/09/01 12:26:27;;;;;;;3.60;3.30;;;23.40;1.00;;;;;;7383969;19;20010;-69
2022/09/01 12:28:58;;;;;;;5.22;3.60;;;23.20;1.00;;;;;;7353051;19;20090;-69
2022/09/01 12:31:29;;;;;;;3.60;3.30;;;23.60;1.00;;;;;;7363012;19;20035;-69
2022/09/01 12:34:01;;;;;;;4.07;3.50;;;23.80;1.00;;;;;;7364215;19;20021;-69
2022/09/01 12:36:36;;;;;;;4.00;3.60;;;23.90;1.00;;;;;;7364680;19;20007;-68
2022/09/01 12:39:26;;;;;;;3.53;3.22;;;24.20;1.00;;;;;;7356721;19;20010;-69
2022/09/01 12:42:06;;;;;;;3.90;3.50;;;23.20;1.00;;;;;;7362799;19;20010;-69
2022/09/01 12:44:45;;;;;;;3.55;3.25;;;23.50;1.00;;;;;;7380461;19;20106;-70
2022/09/01 12:47:36;;;;;;;3.35;3.05;;;23.00;1.00;;;;;;7357060;19;20030;-70
2022/09/01 12:50:09;;;;;;;3.42;3.13;;;23.00;1.00;;;;;;7361903;19;20015;-68
2022/09/01 12:52:49;;;;;;;3.30;3.00;;;23.70;1.00;;;;;;7363257;19;20024;-68
2022/09/01 12:55:24;;;;;;;3.67;2.78;;;23.40;1.00;;;;;;7364002;19;20431;-68
2022/09/01 12:58:14;;;;;;;3.97;3.50;;;23.40;1.00;;;;;;7356569;19;20027;-69
2022/09/01 13:00:58;;;;;;;3.80;3.50;;;23.30;1.00;;;;;;7362491;19;20450;-68
2022/09/01 13:03:29;;;;;;;5.47;3.53;;;23.40;1.00;;;;;;7363467;19;20027;-68
2022/09/01 13:06:03;;;;;;;4.07;3.75;;;24.00;1.00;;;;;;7364214;19;20464;-69
2022/09/01 13:08:37;;;;;;;5.95;4.63;;;24.20;1.00;;;;;;7381105;19;20027;-69
2022/09/01 13:11:09;;;;;;;4.82;3.75;;;23.80;1.00;;;;;;7362049;19;20017;-69
2022/09/01 13:13:40;;;;;;;5.55;4.10;;;24.00;1.00;;;;;;7362811;19;20029;-68
2022/09/01 13:16:12;;;;;;;5.45;3.72;;;24.40;1.00;;;;;;7362853;19;20492;-68
2022/09/01 13:18:44;;;;;;;4.55;3.83;;;24.10;1.00;;;;;;7359534;19;20082;-67
2022/09/01 13:21:36;;;;;;;4.43;3.78;;;24.40;1.00;;;;;;7362575;19;20015;-68
2022/09/01 13:24:28;;;;;;;4.43;4.03;;;24.40;1.00;;;;;;7363788;19;20007;-69
2022/09/01 13:27:00;;;;;;;4.35;3.88;;;24.40;1.00;;;;;;7359642;19;20030;-69
2022/09/01 13:29:51;;;;;;;5.63;3.78;;;24.20;1.00;;;;;;7358364;19;20015;-69
2022/09/01 13:32:22;;;;;;;4.95;3.92;;;24.40;1.00;;;;;;7384689;19;20096;-69